M I D A S
Marine Information and Data Acquisition System
Tripno 1871 of the Zeeleeuw from 2010-04-29 06:50:12 to 2010-04-29 15:24:54
Back to CruiseResearch ActivitiesStationsMapUnderway DataData graphs

EquipmentUnitsComment
TimeDGPSUTC
LatitudeDGPSDM.mWGS84
LongitudeDGPSDM.mWGS84
TemperatureSBE03/SBE38deg celciusITS90
ConductivitySBE21S/mITS90
SalinitySBE21 Practical Salinity Units
ChlorophylAChelsea fluorimeterg/lCalibrated in Aceton
Missing or incorrect values are displayed as -999
Sea surface data collected by the RV Zeeleeuw from 2010-04-29 06:37:43 to 2010-04-29 15:27:23
Time Latitude Longitude Temperature Conductivity Salinity ChlorophylA
2010-04-29 06:38:49 51°13.682 2°55.891 19.754 4.629042 32.670294 -1.000568
2010-04-29 06:39:49 51°13.696 2°55.799 19.7699 4.628936 32.669988 -1.035392
2010-04-29 06:40:49 51°13.703 2°55.739 19.7696 4.628936 32.66946 -1.000568
2010-04-29 06:41:49 51°13.703 2°55.727 19.7827 4.628936 32.669988 -1.000568
2010-04-29 06:42:49 51°13.735 2°55.705 19.8234 4.628936 32.66946 -1.035392
2010-04-29 06:43:49 51°13.856 2°55.614 19.515 4.62883 32.669683 -1.000568
2010-04-29 06:44:49 51°14.011 2°55.508 19.637 4.628725 32.668849 -1.000568
2010-04-29 06:45:49 51°14.167 2°55.388 19.655 4.628936 32.668932 -1.035392
2010-04-29 06:46:48 51°14.328 2°55.251 19.5684 4.628936 32.668404 -1.000568
2010-04-29 06:47:47 51°14.497 2°55.089 19.6192 4.62883 32.668098 -1.000568
2010-04-29 06:48:46 51°14.679 2°54.893 19.6278 4.629042 32.669238 -1.035392
2010-04-29 06:49:46 51°14.865 2°54.678 19.4741 4.629042 32.667654 -1.035392
2010-04-29 06:50:46 51°15.049 2°54.477 19.6128 4.629253 32.66985 -1.035392
2010-04-29 06:51:46 51°15.217 2°54.245 19.6125 4.629042 32.667125 -1.035392
2010-04-29 06:52:46 51°15.398 2°54.022 19.6454 4.629042 32.669238 -1.000568
2010-04-29 06:53:46 51°15.58 2°53.794 19.6371 4.628936 32.667876 -1.035392
2010-04-29 06:54:46 51°15.766 2°53.568 19.6597 4.629042 32.66871 -1.035392
2010-04-29 06:55:46 51°15.955 2°53.347 12.3026 4.185193 31.92313 4.327512
2010-04-29 06:56:46 51°16.161 2°53.198 11.7569 3.633156 30.858189 4.39716
2010-04-29 06:57:46 51°16.37 2°53.061 11.6463 3.547861 30.533999 13.172822
2010-04-29 06:58:46 51°16.577 2°52.922 11.5034 3.53363 30.529627 15.575681
2010-04-29 06:59:46 51°16.784 2°52.797 11.0769 3.526778 30.577519 16.864171
2010-04-29 07:00:46 51°16.978 2°52.663 11.1058 3.519719 30.813201 15.889098
2010-04-29 07:01:45 51°17.177 2°52.564 11.0894 3.517926 30.808403 12.824581
2010-04-29 07:02:46 51°17.385 2°52.467 11.0456 3.531949 30.966138 11.466443
2010-04-29 07:03:45 51°17.592 2°52.402 10.9464 3.532161 31.023111 11.640563
2010-04-29 07:04:46 51°17.805 2°52.338 10.8488 3.528366 31.080911 11.396795
2010-04-29 07:05:45 51°18.012 2°52.272 10.8012 3.511709 30.977893 11.048554
2010-04-29 07:06:46 51°18.229 2°52.199 10.7593 3.518879 31.115125 10.386897
2010-04-29 07:07:45 51°18.44 2°52.13 10.7307 3.519091 31.145041 9.55112
2010-04-29 07:08:46 51°18.658 2°52.055 10.7103 3.532586 31.303654 7.600973
2010-04-29 07:09:45 51°18.87 2°51.977 10.7401 3.521832 31.217638 8.993935
2010-04-29 07:10:46 51°19.088 2°51.896 10.7682 3.52858 31.270383 9.20288
2010-04-29 07:11:46 51°19.302 2°51.811 10.8277 3.521094 31.160645 8.889463
2010-04-29 07:12:45 51°19.511 2°51.727 10.8611 3.512659 31.029035 9.864537
2010-04-29 07:13:46 51°19.726 2°51.639 10.946 3.51793 31.04827 8.541223
2010-04-29 07:14:46 51°19.939 2°51.588 11.0123 3.546498 31.04817 7.705445
2010-04-29 07:15:46 51°20.152 2°51.543 11.0406 3.50496 30.805316 6.103539
2010-04-29 07:16:45 51°20.364 2°51.496 11.0643 3.502852 30.770082 7.357205
2010-04-29 07:17:46 51°20.585 2°51.448 11.0114 3.50106 30.767265 12.1281
2010-04-29 07:18:46 51°20.804 2°51.397 11.0164 3.495367 30.73305 11.919156
2010-04-29 07:19:46 51°21.023 2°51.343 11.0702 3.491782 30.69142 10.630666
2010-04-29 07:20:46 51°21.243 2°51.29 11.0988 3.488935 30.615217 8.854639
2010-04-29 07:21:45 51°21.461 2°51.232 11.1181 3.48398 30.537242 7.392029
2010-04-29 07:22:46 51°21.666 2°51.089 11.0919 3.480606 30.501137 5.894594
2010-04-29 07:23:46 51°21.753 2°50.732 11.087 3.487564 30.584667 7.287557
2010-04-29 07:24:46 51°21.918 2°50.528 11.0857 3.494839 30.656133 7.14826
2010-04-29 07:25:45 51°22.127 2°50.47 11.1096 3.495999 30.697296 6.834844
2010-04-29 07:26:46 51°22.239 2°50.721 11.0607 3.50148 30.706193 6.97414
2010-04-29 07:27:46 51°22.361 2°50.977 10.9691 3.498634 30.724312 6.904492
2010-04-29 07:28:45 51°22.562 2°50.986 10.9692 3.498847 30.817122 6.834844
2010-04-29 07:29:46 51°22.781 2°50.932 10.771 3.498319 30.798589 7.357205
2010-04-29 07:30:45 51°22.982 2°50.968 10.4087 3.505596 31.066052 8.053686
2010-04-29 07:31:46 51°23.188 2°51.019 10.28 3.501805 31.311701 7.566149
2010-04-29 07:32:45 51°23.385 2°51.071 10.2463 3.503598 31.412104 7.879566
2010-04-29 07:33:46 51°23.592 2°51.117 10.276 3.500963 31.412326 7.496501
2010-04-29 07:34:45 51°23.793 2°51.156 10.2389 3.499065 31.384373 7.635797
2010-04-29 07:35:46 51°24.002 2°51.199 10.1746 3.500225 31.432867 8.959111
2010-04-29 07:36:45 51°24.205 2°51.235 10.1411 3.499488 31.473037 9.794888
2010-04-29 07:37:46 51°24.415 2°51.27 10.162 3.499067 31.503867 9.237704
2010-04-29 07:38:46 51°24.621 2°51.302 10.199 3.496747 31.450566 7.043788
2010-04-29 07:39:46 51°24.825 2°51.336 10.1848 3.498012 31.43942 5.616002
2010-04-29 07:40:46 51°25.029 2°51.37 10.1557 3.49875 31.463569 4.849873
2010-04-29 07:41:46 51°25.233 2°51.401 10.1498 3.495693 31.451235 3.839975
2010-04-29 07:42:46 51°25.437 2°51.437 10.1386 3.494111 31.444537 2.551485
2010-04-29 07:43:45 51°25.64 2°51.47 10.1382 3.493584 31.444171 2.516661
2010-04-29 07:44:46 51°25.851 2°51.505 10.1269 3.494112 31.457844 2.586309
2010-04-29 07:45:45 51°26.056 2°51.547 10.1019 3.494744 31.474683 2.690782
2010-04-29 07:46:45 51°26.268 2°51.591 10.1176 3.495799 31.49856 3.004198
2010-04-29 07:47:46 51°26.482 2°51.631 10.0813 3.497169 31.512973 3.039022
2010-04-29 07:48:45 51°26.688 2°51.666 9.9737 3.500543 31.579819 3.178318
2010-04-29 07:49:46 51°26.902 2°51.703 9.8711 3.502232 31.697911 5.058817
2010-04-29 07:50:45 51°27.104 2°51.741 9.8138 3.49907 31.728683 4.57128
2010-04-29 07:51:46 51°27.309 2°51.783 9.7456 3.509719 31.911878 4.57128
2010-04-29 07:52:45 51°27.495 2°51.882 9.6868 3.515412 32.009009 4.153392
2010-04-29 07:53:46 51°27.681 2°52.001 9.6632 3.518365 32.090236 3.874799
2010-04-29 07:54:45 51°27.863 2°52.115 9.6642 3.516889 32.09123 3.422087
2010-04-29 07:55:46 51°28.053 2°52.233 9.6764 3.516889 32.093406 2.969374
2010-04-29 07:56:46 51°28.241 2°52.349 9.6589 3.517311 32.089703 3.700679
2010-04-29 07:57:45 51°28.427 2°52.461 9.6711 3.519314 32.115081 3.387263
2010-04-29 07:58:46 51°28.622 2°52.578 9.6648 3.518682 32.112298 3.561383
2010-04-29 07:59:45 51°28.81 2°52.692 9.648 3.520579 32.135894 3.770327
2010-04-29 08:00:46 51°29.006 2°52.804 9.6225 3.519631 32.132084 4.083744
2010-04-29 08:01:46 51°29.198 2°52.917 9.6238 3.521634 32.185874 4.536456
2010-04-29 08:02:46 51°29.39 2°53.03 9.6027 3.521951 32.191271 3.839975
2010-04-29 08:03:45 51°29.579 2°53.142 9.6032 3.521951 32.197102 3.596207
2010-04-29 08:04:46 51°29.774 2°53.255 9.5664 3.522583 32.20936 3.456911
2010-04-29 08:05:46 51°29.961 2°53.381 9.5583 3.523322 32.250455 5.058817
2010-04-29 08:06:45 51°30.145 2°53.505 9.5436 3.516785 32.193489 5.232937
2010-04-29 08:07:46 51°30.336 2°53.63 9.5534 3.512146 32.156537 4.640929
2010-04-29 08:08:45 51°30.523 2°53.755 9.6273 3.51183 32.135094 4.22304
2010-04-29 08:09:46 51°30.71 2°53.892 9.4881 3.524165 32.234183 5.441882
2010-04-29 08:10:45 51°30.886 2°54.028 9.4457 3.538083 32.474231 6.173187
2010-04-29 08:11:46 51°31.065 2°54.166 9.4438 3.540298 32.532313 6.277659
2010-04-29 08:12:45 51°31.237 2°54.306 9.4565 3.537978 32.507151 6.138363
2010-04-29 08:13:46 51°31.408 2°54.47 9.4582 3.536291 32.486973 6.521427
2010-04-29 08:14:46 51°31.577 2°54.63 9.4679 3.534393 32.466125 6.242835
2010-04-29 08:15:45 51°31.742 2°54.789 9.4708 3.532601 32.427911 6.382131
2010-04-29 08:16:46 51°31.902 2°54.979 9.4565 3.53471 32.448679 6.521427
2010-04-29 08:17:45 51°32.056 2°55.167 9.4713 3.534393 32.457262 6.382131
2010-04-29 08:18:46 51°32.216 2°55.362 9.4872 3.532074 32.417375 6.103539
2010-04-29 08:19:46 51°32.364 2°55.494 9.5207 3.529965 32.39072 5.790122
2010-04-29 08:20:46 51°32.439 2°55.446 9.5564 3.532284 32.360672 3.979271
2010-04-29 08:21:45 51°32.463 2°55.367 9.5424 3.535974 32.389415 3.596207
2010-04-29 08:22:46 51°32.466 2°55.287 9.4948 3.538504 32.432824 3.631031
2010-04-29 08:23:46 51°32.457 2°55.213 9.4423 3.5384 32.475242 4.362336
2010-04-29 08:24:45 51°32.439 2°55.141 9.4237 3.542196 32.556137 5.407058
2010-04-29 08:25:46 51°32.42 2°55.067 9.3995 3.543461 32.580183 5.720474
2010-04-29 08:26:45 51°32.413 2°54.99 9.3999 3.542723 32.596399 6.556251
2010-04-29 08:27:46 51°32.457 2°55 9.3559 3.54325 32.602532 7.183084
2010-04-29 08:28:45 51°32.429 2°55.199 9.3452 3.541564 32.613533 6.904492
2010-04-29 08:29:46 51°32.368 2°55.508 9.3523 3.534395 32.56024 7.496501
2010-04-29 08:30:46 51°32.301 2°55.84 9.4323 3.540193 32.60174 6.416955
2010-04-29 08:31:45 51°32.255 2°56.105 9.4788 3.534183 32.477276 5.372234
2010-04-29 08:32:46 51°32.224 2°56.297 9.4758 3.535131 32.445603 5.267761
2010-04-29 08:33:46 51°32.204 2°56.469 9.5005 3.538926 32.445956 4.188216
2010-04-29 08:34:46 51°32.19 2°56.64 9.462 3.544198 32.524771 5.68565
2010-04-29 08:35:45 51°32.171 2°56.724 9.4414 3.544726 32.549379 5.650826
2010-04-29 08:36:46 51°32.147 2°56.709 9.4524 3.540508 32.514485 6.242835
2010-04-29 08:37:45 51°32.125 2°56.694 9.4275 3.534393 32.46317 7.14826
2010-04-29 08:38:46 51°32.099 2°56.68 9.4026 3.540087 32.533862 7.252733
2010-04-29 08:39:45 51°32.064 2°56.676 9.3947 3.538611 32.530639 7.496501
2010-04-29 08:40:46 51°32.023 2°56.695 9.4001 3.541036 32.551703 7.183084
2010-04-29 08:41:46 51°31.989 2°56.722 9.4031 3.540825 32.553256 6.451779
2010-04-29 08:42:45 51°31.963 2°56.74 9.4026 3.539982 32.543898 6.451779
2010-04-29 08:43:46 51°31.94 2°56.753 9.3915 3.540193 32.559399 7.217908
2010-04-29 08:44:46 51°31.917 2°56.76 9.3844 3.536713 32.523105 6.695548
2010-04-29 08:45:46 51°31.896 2°56.762 9.3863 3.535448 32.518328 6.695548
2010-04-29 08:46:45 51°31.873 2°56.762 9.3941 3.533445 32.492674 6.97414
2010-04-29 08:47:46 51°31.851 2°56.76 9.393 3.540614 32.562225 6.695548
2010-04-29 08:48:46 51°31.826 2°56.755 9.3836 3.540509 32.564115 6.97414
2010-04-29 08:49:46 51°31.801 2°56.748 9.3885 3.540615 32.571872 7.566149
2010-04-29 08:50:45 51°31.776 2°56.741 9.3949 3.540298 32.562702 7.183084
2010-04-29 08:51:45 51°31.752 2°56.731 9.3932 3.541036 32.56876 7.217908
2010-04-29 08:52:45 51°31.721 2°56.733 9.3972 3.540931 32.565457 6.80002
2010-04-29 08:53:46 51°31.64 2°56.719 9.3891 3.53956 32.554418 6.6259
2010-04-29 08:54:46 51°31.602 2°56.598 9.3879 3.539771 32.555831 5.824946
2010-04-29 08:55:45 51°31.646 2°56.522 9.3839 3.540509 32.567083 6.312483
2010-04-29 08:56:45 51°31.717 2°56.441 9.3983 3.539349 32.555972 6.068715
2010-04-29 08:57:45 51°31.803 2°56.301 9.3918 3.540193 32.560882 5.407058
2010-04-29 08:58:46 51°31.908 2°56.164 9.3792 3.539666 32.555495 5.581178
2010-04-29 08:59:46 51°32.011 2°56.025 9.3667 3.540615 32.578554 5.68565
2010-04-29 09:00:45 51°32.128 2°55.878 9.3542 3.539877 32.582149 5.85977
2010-04-29 09:01:46 51°32.263 2°55.713 9.3353 3.539139 32.585747 6.97414
2010-04-29 09:02:46 51°32.36 2°55.676 9.3153 3.535871 32.567914 7.287557
2010-04-29 09:03:45 51°32.38 2°55.754 9.3056 3.534289 32.570315 6.834844
2010-04-29 09:04:45 51°32.448 2°55.837 9.3197 3.53313 32.562903 6.033891
2010-04-29 09:05:46 51°32.488 2°56.022 9.3145 3.533551 32.562758 7.183084
2010-04-29 09:06:45 51°32.468 2°56.115 9.3151 3.533024 32.556617 7.705445
2010-04-29 09:07:46 51°32.44 2°56.168 9.3175 3.532602 32.54784 7.392029
2010-04-29 09:08:45 51°32.416 2°56.196 9.3225 3.532602 32.548583 7.809917
2010-04-29 09:09:46 51°32.392 2°56.211 9.3317 3.53334 32.549449 7.600973
2010-04-29 09:10:46 51°32.367 2°56.217 9.3352 3.533973 32.552208 7.635797
2010-04-29 09:11:46 51°32.341 2°56.218 9.3386 3.534395 32.549094 8.123334
2010-04-29 09:12:45 51°32.315 2°56.215 9.3514 3.534394 32.543896 7.496501
2010-04-29 09:13:45 51°32.286 2°56.221 9.3491 3.53587 32.555283 8.26263
2010-04-29 09:14:46 51°32.242 2°56.27 9.3533 3.535238 32.548069 7.287557
2010-04-29 09:15:45 51°32.18 2°56.312 9.3689 3.535132 32.543278 6.869668
2010-04-29 09:16:46 51°32.115 2°56.316 9.3706 3.538295 32.562263 6.173187
2010-04-29 09:17:45 51°32.047 2°56.277 9.38 3.53819 32.56564 6.556251
2010-04-29 09:18:46 51°32.022 2°56.139 9.3871 3.539982 32.567632 5.929418
2010-04-29 09:19:45 51°32.094 2°56.037 9.3614 3.539771 32.56993 6.068715
2010-04-29 09:20:46 51°32.179 2°55.969 9.3353 3.537452 32.564775 6.904492
2010-04-29 09:21:46 51°32.268 2°55.98 9.3259 3.534816 32.555638 7.879566
2010-04-29 09:22:45 51°32.388 2°55.975 9.3439 3.533024 32.548441 7.14826
2010-04-29 09:23:46 51°32.443 2°55.987 9.3438 3.533762 32.54485 7.078612
2010-04-29 09:24:45 51°32.451 2°56 9.3456 3.532813 32.529943 6.834844
2010-04-29 09:25:46 51°32.45 2°56.013 9.3527 3.531337 32.520038 7.705445
2010-04-29 09:26:45 51°32.444 2°56.019 9.3519 3.534184 32.540996 7.705445
2010-04-29 09:27:46 51°32.435 2°56.021 9.3513 3.533762 32.540394 7.670621
2010-04-29 09:28:45 51°32.425 2°56.019 9.3362 3.533973 32.535869 7.252733
2010-04-29 09:29:46 51°32.41 2°56.013 9.3469 3.532391 32.536766 8.715343
2010-04-29 09:30:46 51°32.394 2°56.005 9.3728 3.53334 32.537564 7.809917
2010-04-29 09:31:45 51°32.376 2°55.997 9.3553 3.535238 32.534709 7.426853
2010-04-29 09:32:46 51°32.354 2°55.986 9.3722 3.533762 32.530002 7.705445
2010-04-29 09:33:45 51°32.349 2°55.984 9.3741 3.534816 32.525205 7.14826
2010-04-29 09:34:46 51°32.361 2°55.944 9.3629 3.534605 32.528982 6.939316
2010-04-29 09:35:46 51°32.354 2°55.857 9.3469 3.533551 32.522652 6.6259
2010-04-29 09:36:45 51°32.311 2°55.77 9.3404 3.531442 32.514438 7.183084
2010-04-29 09:37:45 51°32.242 2°55.734 9.3356 3.532813 32.537368 7.670621
2010-04-29 09:38:46 51°32.179 2°55.765 9.3439 3.532919 32.540675 7.14826
2010-04-29 09:39:45 51°32.179 2°55.839 9.3545 3.533762 32.538166 6.486603
2010-04-29 09:40:46 51°32.275 2°55.773 9.3542 3.531653 32.515111 6.765196
2010-04-29 09:41:46 51°32.438 2°55.666 9.3499 3.532497 32.522997 7.043788
2010-04-29 09:42:45 51°32.605 2°55.562 9.3429 3.533656 32.530407 6.834844
2010-04-29 09:43:46 51°32.713 2°55.437 9.3278 3.533129 32.533922 6.765196
2010-04-29 09:44:45 51°32.747 2°55.344 9.3232 3.532708 32.542231 6.103539
2010-04-29 09:45:46 51°32.749 2°55.312 9.3152 3.531548 32.528877 6.834844
2010-04-29 09:46:45 51°32.745 2°55.301 9.3141 3.532813 32.548512 7.426853
2010-04-29 09:47:45 51°32.734 2°55.293 9.3198 3.534711 32.569426 7.635797
2010-04-29 09:48:45 51°32.72 2°55.282 9.3026 3.535133 32.57672 7.531325
2010-04-29 09:49:45 51°32.704 2°55.27 9.323 3.534606 32.580995 7.879566
2010-04-29 09:50:46 51°32.696 2°55.263 9.3099 3.53566 32.57691 8.018862
2010-04-29 09:51:46 51°32.74 2°55.216 9.3575 3.534922 32.575305 7.357205
2010-04-29 09:52:46 51°32.863 2°55.048 9.3001 3.536925 32.567555 6.556251
2010-04-29 09:53:46 51°32.997 2°54.844 9.2738 3.535766 32.595852 6.97414
2010-04-29 09:54:46 51°33.154 2°54.705 9.2755 3.536609 32.621634 7.775093
2010-04-29 09:55:46 51°33.251 2°54.684 9.2525 3.537031 32.627448 7.392029
2010-04-29 09:56:46 51°33.285 2°54.683 9.3115 3.536399 32.631409 7.322381
2010-04-29 09:57:45 51°33.287 2°54.666 9.2742 3.537031 32.608812 6.80002
2010-04-29 09:58:45 51°33.277 2°54.65 9.2924 3.537137 32.637483 8.26263
2010-04-29 09:59:46 51°33.266 2°54.639 9.2747 3.537453 32.623567 8.123334
2010-04-29 10:00:45 51°33.266 2°54.642 9.2807 3.536293 32.62063 7.600973
2010-04-29 10:01:46 51°33.267 2°54.645 9.3084 3.53682 32.629017 7.740269
2010-04-29 10:02:45 51°33.266 2°54.644 9.2943 3.536504 32.600432 6.939316
2010-04-29 10:03:46 51°33.267 2°54.639 9.3296 3.535977 32.603971 6.730372
2010-04-29 10:04:45 51°33.27 2°54.636 9.34 3.538612 32.590019 5.441882
2010-04-29 10:05:45 51°33.275 2°54.632 9.3459 3.539772 32.610074 5.894594
2010-04-29 10:06:46 51°33.278 2°54.63 9.3978 3.539877 32.574721 4.466808
2010-04-29 10:07:45 51°33.28 2°54.634 9.3786 3.542196 32.597696 5.581178
2010-04-29 10:08:46 51°33.279 2°54.634 9.4375 3.537979 32.570911 5.964243
2010-04-29 10:09:45 51°33.276 2°54.633 9.4305 3.53956 32.519596 4.257864
2010-04-29 10:10:46 51°33.273 2°54.633 9.4394 3.541352 32.546782 4.919521
2010-04-29 10:11:45 51°33.272 2°54.635 9.3942 3.542301 32.553508 4.675753
2010-04-29 10:12:45 51°33.273 2°54.637 9.3959 3.541247 32.567947 4.710577
2010-04-29 10:13:45 51°33.273 2°54.636 9.4102 3.537452 32.537317 5.093641
2010-04-29 10:14:45 51°33.274 2°54.633 9.3884 3.537241 32.521082 4.710577
2010-04-29 10:15:46 51°33.275 2°54.633 9.4072 3.540404 32.570459 4.640929
2010-04-29 10:16:45 51°33.276 2°54.634 9.3739 3.54188 32.571444 4.292688
2010-04-29 10:17:46 51°33.276 2°54.634 9.4328 3.540087 32.54794 4.04892
2010-04-29 10:18:45 51°33.276 2°54.633 9.4598 3.541879 32.54772 4.153392
2010-04-29 10:19:46 51°33.276 2°54.633 9.4725 3.539981 32.512803 4.014096
2010-04-29 10:20:45 51°33.276 2°54.633 9.462 3.54462 32.53129 3.456911
2010-04-29 10:21:45 51°33.276 2°54.634 9.4345 3.545464 32.576911 4.710577
2010-04-29 10:22:45 51°33.276 2°54.634 9.4706 3.543461 32.548312 3.979271
2010-04-29 10:23:45 51°33.275 2°54.635 9.4732 3.544199 32.544 3.770327
2010-04-29 10:24:44 51°33.274 2°54.635 9.4388 3.546623 32.556159 3.28279
2010-04-29 10:25:45 51°33.273 2°54.636 9.3736 3.544515 32.573894 4.362336
2010-04-29 10:26:46 51°33.274 2°54.636 9.3963 3.537241 32.532938 4.606104
2010-04-29 10:27:45 51°33.274 2°54.637 9.4239 3.540931 32.566941 4.710577
2010-04-29 10:28:45 51°33.273 2°54.638 9.3744 3.543672 32.576403 4.292688
2010-04-29 10:29:45 51°33.273 2°54.637 9.3591 3.539982 32.579513 5.755298
2010-04-29 10:30:45 51°33.273 2°54.638 9.3887 3.538401 32.570024 5.267761
2010-04-29 10:31:46 51°33.274 2°54.638 9.4608 3.541141 32.55278 4.014096
2010-04-29 10:32:45 51°33.274 2°54.639 9.3924 3.544515 32.567964 4.884697
2010-04-29 10:33:44 51°33.274 2°54.639 9.4008 3.541036 32.584351 5.33741
2010-04-29 10:34:45 51°33.273 2°54.639 9.3247 3.541563 32.569696 4.606104
2010-04-29 10:35:46 51°33.272 2°54.639 9.385 3.537558 32.603039 6.068715
2010-04-29 10:36:45 51°33.273 2°54.639 9.3484 3.539877 32.56507 4.884697
2010-04-29 10:37:45 51°33.273 2°54.64 9.3823 3.539139 32.579059 5.058817
2010-04-29 10:38:45 51°33.273 2°54.641 9.3135 3.541669 32.583392 4.536456
2010-04-29 10:39:45 51°33.273 2°54.641 9.3008 3.536925 32.598794 6.591076
2010-04-29 10:40:46 51°33.273 2°54.64 9.3557 3.535133 32.578208 5.546354
2010-04-29 10:41:45 51°33.273 2°54.64 9.4065 3.540509 32.580447 4.640929
2010-04-29 10:42:46 51°33.273 2°54.641 9.4211 3.543461 32.57499 4.188216
2010-04-29 10:43:45 51°33.272 2°54.642 9.3542 3.545148 32.595192 4.989169
2010-04-29 10:44:45 51°33.272 2°54.642 9.3291 3.541353 32.590557 5.128465
2010-04-29 10:45:45 51°33.271 2°54.643 9.2878 3.538823 32.60036 5.894594
2010-04-29 10:46:46 51°33.271 2°54.643 9.2674 3.536609 32.620889 7.566149
2010-04-29 10:47:45 51°33.271 2°54.643 9.2793 3.534501 32.601514 6.869668
2010-04-29 10:48:46 51°33.272 2°54.643 9.2806 3.534184 32.600509 7.043788
2010-04-29 10:49:46 51°33.272 2°54.644 9.2919 3.533446 32.586239 6.834844
2010-04-29 10:50:46 51°33.272 2°54.645 9.2738 3.534395 32.590748 7.078612
2010-04-29 10:51:45 51°33.271 2°54.646 9.3018 3.534922 32.611801 6.939316
2010-04-29 10:52:45 51°33.27 2°54.646 9.322 3.536398 32.593396 6.347307
2010-04-29 10:53:46 51°33.269 2°54.648 9.3125 3.536714 32.604827 6.6259
2010-04-29 10:54:46 51°33.27 2°54.648 9.3101 3.534184 32.584864 7.14826
2010-04-29 10:55:46 51°33.27 2°54.648 9.3134 3.533657 32.577975 7.043788
2010-04-29 10:56:45 51°33.27 2°54.649 9.3126 3.53566 32.601475 7.043788
2010-04-29 10:57:45 51°33.271 2°54.649 9.3063 3.536293 32.608702 7.078612
2010-04-29 10:58:45 51°33.271 2°54.648 9.3203 3.53566 32.606691 7.252733
2010-04-29 10:59:46 51°33.271 2°54.648 9.3226 3.535871 32.596932 7.043788
2010-04-29 11:00:45 51°33.27 2°54.648 9.3206 3.535133 32.591606 6.97414
2010-04-29 11:01:46 51°33.271 2°54.648 9.3195 3.534922 32.584979 6.97414
2010-04-29 11:02:46 51°33.271 2°54.65 9.3343 3.537136 32.604677 6.869668
2010-04-29 11:03:46 51°33.271 2°54.652 9.3365 3.538085 32.606203 6.730372
2010-04-29 11:04:46 51°33.271 2°54.654 9.3098 3.538401 32.614656 7.217908
2010-04-29 11:05:45 51°33.271 2°54.655 9.3195 3.537558 32.619429 7.113436
2010-04-29 11:06:46 51°33.27 2°54.655 9.3198 3.538191 32.621438 7.113436
2010-04-29 11:07:45 51°33.27 2°54.656 9.3234 3.538085 32.622594 7.043788
2010-04-29 11:08:45 51°33.27 2°54.655 9.3303 3.538296 32.618046 7.078612
2010-04-29 11:09:46 51°33.27 2°54.656 9.3356 3.539245 32.617335 6.904492
2010-04-29 11:10:45 51°33.271 2°54.659 9.3353 3.538612 32.610112 7.078612
2010-04-29 11:11:46 51°33.27 2°54.66 9.3357 3.539877 32.625303 6.730372
2010-04-29 11:12:46 51°33.27 2°54.663 9.3436 3.539139 32.622215 6.904492
2010-04-29 11:13:46 51°33.27 2°54.664 9.3465 3.539561 32.619829 6.765196
2010-04-29 11:14:45 51°33.27 2°54.666 9.3449 3.541248 32.626673 6.80002
2010-04-29 11:15:46 51°33.27 2°54.668 9.3578 3.541142 32.627828 6.660724
2010-04-29 11:16:45 51°33.27 2°54.669 9.3705 3.541037 32.614836 6.521427
2010-04-29 11:17:46 51°33.271 2°54.67 9.3691 3.54188 32.613794 6.138363
2010-04-29 11:18:46 51°33.271 2°54.671 9.3579 3.543778 32.63768 6.451779
2010-04-29 11:19:45 51°33.272 2°54.673 9.3582 3.543356 32.634853 6.347307
2010-04-29 11:20:45 51°33.273 2°54.674 9.3564 3.543356 32.633364 6.312483
2010-04-29 11:21:45 51°33.274 2°54.675 9.3606 3.542724 32.637315 6.695548
2010-04-29 11:22:46 51°33.275 2°54.677 9.3626 3.543673 32.639579 6.486603
2010-04-29 11:23:46 51°33.275 2°54.679 9.355 3.543778 32.63768 6.521427
2010-04-29 11:24:45 51°33.275 2°54.682 9.3423 3.543356 32.645281 7.078612
2010-04-29 11:25:45 51°33.275 2°54.684 9.3548 3.542408 32.643763 7.217908
2010-04-29 11:26:45 51°33.275 2°54.686 9.3356 3.543146 32.646848 7.217908
2010-04-29 11:27:45 51°33.274 2°54.687 9.3367 3.541881 32.646565 7.566149
2010-04-29 11:28:45 51°33.274 2°54.688 9.3278 3.541459 32.647464 7.775093
2010-04-29 11:29:46 51°33.275 2°54.688 9.3223 3.541248 32.646796 7.984038
2010-04-29 11:30:45 51°33.275 2°54.688 9.323 3.540932 32.646539 8.227806
2010-04-29 11:31:45 51°33.276 2°54.689 9.3198 3.541143 32.650937 8.123334
2010-04-29 11:32:45 51°33.277 2°54.691 9.3598 3.541037 32.649857 8.367102
2010-04-29 11:33:45 51°33.277 2°54.692 9.4686 3.545148 32.636815 6.556251
2010-04-29 11:34:45 51°33.278 2°54.694 9.4811 3.552844 32.636682 5.441882
2010-04-29 11:35:45 51°33.278 2°54.696 9.4497 3.555796 32.656423 4.954345
2010-04-29 11:36:45 51°33.279 2°54.697 9.4532 3.554004 32.655206 4.989169
2010-04-29 11:37:45 51°33.279 2°54.698 9.4066 3.554004 32.658178 5.407058
2010-04-29 11:38:45 51°33.28 2°54.698 9.4131 3.551158 32.661807 5.581178
2010-04-29 11:39:46 51°33.281 2°54.699 9.3986 3.550947 32.661883 5.581178
2010-04-29 11:40:46 51°33.281 2°54.699 9.4052 3.549893 32.668222 5.51153
2010-04-29 11:41:46 51°33.281 2°54.7 9.5089 3.55158 32.664629 5.68565
2010-04-29 11:42:46 51°33.282 2°54.7 9.5295 3.557694 32.662427 5.68565
2010-04-29 11:43:45 51°33.282 2°54.7 9.4955 3.559592 32.667687 5.824946
2010-04-29 11:44:46 51°33.282 2°54.701 9.5558 3.560435 32.664419 6.416955
2010-04-29 11:45:45 51°33.282 2°54.701 9.5871 3.563598 32.666264 6.834844
2010-04-29 11:46:45 51°33.282 2°54.702 9.5054 3.566761 32.670334 7.113436
2010-04-29 11:47:45 51°33.283 2°54.702 9.3676 3.562544 32.678501 7.844741
2010-04-29 11:48:46 51°33.287 2°54.699 9.3103 3.549155 32.697192 8.158158
2010-04-29 11:49:46 51°33.291 2°54.702 9.3182 3.542724 32.668634 8.332278
2010-04-29 11:50:45 51°33.294 2°54.707 9.3298 3.543568 32.679517 7.844741
2010-04-29 11:51:45 51°33.299 2°54.715 9.3112 3.541881 32.644328 7.775093
2010-04-29 11:52:45 51°33.306 2°54.721 9.3084 3.543989 32.681599 7.984038
2010-04-29 11:53:46 51°33.319 2°54.71 9.3204 3.543884 32.679025 8.158158
2010-04-29 11:54:45 51°33.331 2°54.7 9.3957 3.543146 32.673702 7.670621
2010-04-29 11:55:45 51°33.34 2°54.698 9.569 3.549576 32.644155 5.267761
2010-04-29 11:56:46 51°33.351 2°54.697 9.5887 3.562965 32.652413 3.874799
2010-04-29 11:57:46 51°33.391 2°54.685 9.4348 3.563598 32.665523 4.292688
2010-04-29 11:58:45 51°33.448 2°54.744 9.4797 3.556429 32.693357 3.839975
2010-04-29 11:59:46 51°33.468 2°54.862 9.4851 3.556956 32.691303 3.665855
2010-04-29 12:00:45 51°33.443 2°54.951 9.5739 3.558432 32.681099 2.899726
2010-04-29 12:01:46 51°33.398 2°54.978 9.5474 3.564757 32.669929 2.377365
2010-04-29 12:02:46 51°33.358 2°54.963 9.5344 3.563809 32.675824 2.586309
2010-04-29 12:03:45 51°33.328 2°54.944 9.4813 3.562227 32.67676 3.143494
2010-04-29 12:04:46 51°33.307 2°54.931 9.4226 3.557378 32.686686 4.675753
2010-04-29 12:05:45 51°33.296 2°54.925 9.4791 3.554321 32.680741 4.815049
2010-04-29 12:06:46 51°33.288 2°54.926 9.5238 3.557272 32.672975 4.39716
2010-04-29 12:07:46 51°33.283 2°54.935 9.5501 3.561068 32.669386 4.118568
2010-04-29 12:08:45 51°33.279 2°54.948 9.4692 3.563282 32.680833 4.536456
2010-04-29 12:09:45 51°33.276 2°54.967 9.5114 3.558222 32.695299 5.51153
2010-04-29 12:10:45 51°33.275 2°54.989 9.6303 3.561068 32.675321 4.606104
2010-04-29 12:11:46 51°33.274 2°55.011 9.7305 3.569607 32.666749 3.874799
2010-04-29 12:12:45 51°33.271 2°55.02 9.6334 3.57646 32.66697 3.039022
2010-04-29 12:13:45 51°33.269 2°55.008 9.6106 3.570872 32.686277 3.665855
2010-04-29 12:14:46 51°33.259 2°54.982 9.502 3.567077 32.686146 3.909623
2010-04-29 12:15:46 51°33.244 2°54.947 9.4617 3.556745 32.654972 5.163289
2010-04-29 12:16:45 51°33.229 2°54.905 9.4003 3.556324 32.693768 5.51153
2010-04-29 12:17:45 51°33.216 2°54.859 9.3863 3.553478 32.707121 6.208011
2010-04-29 12:18:45 51°33.221 2°54.81 9.5381 3.551264 32.707586 6.312483
2010-04-29 12:19:45 51°33.255 2°54.784 9.5782 3.562122 32.664563 3.10867
2010-04-29 12:20:45 51°33.303 2°54.797 9.5073 3.565285 32.690867 2.969374
2010-04-29 12:21:45 51°33.348 2°54.852 9.457 3.562228 32.717613 3.735503
2010-04-29 12:22:45 51°33.387 2°54.933 9.4474 3.558854 32.710689 3.665855
2010-04-29 12:23:46 51°33.427 2°55.001 9.5613 3.560225 32.719479 3.770327
2010-04-29 12:24:46 51°33.473 2°55.049 9.6457 3.566234 32.694603 2.93455
2010-04-29 12:25:45 51°33.519 2°55.08 9.7366 3.573086 32.675517 2.168421
2010-04-29 12:26:45 51°33.567 2°55.099 9.7502 3.580044 32.683442 1.680884
2010-04-29 12:27:46 51°33.612 2°55.104 9.7349 3.580255 32.691484 1.541588
2010-04-29 12:28:46 51°33.656 2°55.089 9.8278 3.580571 32.691743 1.367467
2010-04-29 12:29:45 51°33.65 2°54.949 9.734 3.587318 32.665155 1.088875
2010-04-29 12:30:45 51°33.553 2°54.724 9.5372 3.580888 32.711935 1.64606
2010-04-29 12:31:45 51°33.414 2°54.49 9.4348 3.567499 32.741662 3.10867
2010-04-29 12:32:46 51°33.271 2°54.247 9.4122 3.559066 32.745629 4.153392
2010-04-29 12:33:45 51°33.135 2°54.01 9.4017 3.558327 32.736591 4.257864
2010-04-29 12:34:45 51°32.983 2°53.792 9.3936 3.55643 32.738814 4.640929
2010-04-29 12:35:46 51°32.811 2°53.605 9.4126 3.559593 32.754005 4.362336
2010-04-29 12:36:45 51°32.63 2°53.464 9.4082 3.563599 32.789754 4.118568
2010-04-29 12:37:45 51°32.435 2°53.355 9.4159 3.564654 32.815487 3.526559
2010-04-29 12:38:45 51°32.242 2°53.242 9.3857 3.570769 32.842143 4.04892
2010-04-29 12:39:46 51°32.046 2°53.128 9.4035 3.571718 32.905031 4.640929
2010-04-29 12:40:45 51°31.855 2°53.019 9.4135 3.578572 32.945176 4.014096
2010-04-29 12:41:45 51°31.663 2°52.908 9.368 3.58047 32.990155 3.770327
2010-04-29 12:42:45 51°31.471 2°52.794 9.3295 3.57562 32.947991 4.118568
2010-04-29 12:43:45 51°31.307 2°52.705 9.2767 3.573828 32.9936 5.790122
2010-04-29 12:44:46 51°31.212 2°52.659 9.2744 3.569927 32.967883 6.277659
2010-04-29 12:45:45 51°31.177 2°52.636 9.2659 3.565815 32.948278 6.521427
2010-04-29 12:46:45 51°31.166 2°52.625 9.2207 3.565921 32.94936 6.486603
2010-04-29 12:47:46 51°31.167 2°52.622 9.2131 3.562125 32.939778 6.6259
2010-04-29 12:48:45 51°31.173 2°52.627 9.2094 3.561176 32.939834 6.904492
2010-04-29 12:49:45 51°31.179 2°52.629 9.233 3.561071 32.936486 7.287557
2010-04-29 12:50:45 51°31.182 2°52.607 9.2387 3.563285 32.934348 7.008964
2010-04-29 12:51:46 51°31.185 2°52.568 9.304 3.564234 32.934295 6.312483
2010-04-29 12:52:45 51°31.188 2°52.525 9.2368 3.568662 32.942842 5.824946
2010-04-29 12:53:45 51°31.178 2°52.487 9.2768 3.565604 32.948374 5.51153
2010-04-29 12:54:45 51°31.157 2°52.467 9.2873 3.569083 32.942651 4.362336
2010-04-29 12:55:45 51°31.115 2°52.501 9.2931 3.5694 32.96021 4.989169
2010-04-29 12:56:46 51°31.139 2°52.699 9.3059 3.567291 32.947606 5.894594
2010-04-29 12:57:45 51°31.329 2°52.804 9.2466 3.564761 32.925393 5.198113
2010-04-29 12:58:45 51°31.566 2°52.743 9.3073 3.56455 32.930761 5.581178
2010-04-29 12:59:45 51°31.813 2°52.714 9.2289 3.572141 32.990614 5.128465
2010-04-29 13:00:45 51°32.059 2°52.674 9.2883 3.572985 33.031001 4.745401
2010-04-29 13:01:44 51°32.233 2°52.686 9.297 3.575515 33.023746 3.979271
2010-04-29 13:02:45 51°32.311 2°52.769 9.5225 3.580259 33.004552 2.168421
2010-04-29 13:03:45 51°32.338 2°52.817 9.3011 3.5927 33.010115 2.272893
2010-04-29 13:04:45 51°32.355 2°52.878 9.2688 3.582158 33.085152 5.720474
2010-04-29 13:05:45 51°32.346 2°52.947 9.3803 3.577413 33.045501 5.894594
2010-04-29 13:06:45 51°32.338 2°52.988 9.3544 3.583949 32.991198 2.238069
2010-04-29 13:07:45 51°32.332 2°53.021 9.3773 3.583528 33.047855 3.387263
2010-04-29 13:08:45 51°32.328 2°53.053 9.3336 3.585531 33.032212 3.004198
2010-04-29 13:09:45 51°32.328 2°53.087 9.4337 3.579627 33.056145 5.372234
2010-04-29 13:10:45 51°32.331 2°53.121 9.6706 3.585109 33.042957 3.839975
2010-04-29 13:11:45 51°32.335 2°53.155 9.5321 3.60514 33.015003 2.307717
2010-04-29 13:12:45 51°32.297 2°53.215 9.5453 3.593333 33.060902 3.909623
2010-04-29 13:13:45 51°32.179 2°53.315 9.2479 3.598182 33.03761 3.456911
2010-04-29 13:14:45 51°32.026 2°53.4 9.2422 3.577203 33.068292 5.546354
2010-04-29 13:15:45 51°31.885 2°53.483 9.2214 3.572458 33.023315 5.68565
2010-04-29 13:16:46 51°31.775 2°53.563 9.2275 3.568135 32.985692 5.824946
2010-04-29 13:17:45 51°31.712 2°53.602 9.2238 3.565288 32.960212 6.765196
2010-04-29 13:18:45 51°31.685 2°53.618 9.2215 3.562231 32.933318 6.312483
2010-04-29 13:19:45 51°31.674 2°53.634 9.2124 3.561387 32.930683 6.660724
2010-04-29 13:20:45 51°31.668 2°53.657 9.209 3.559173 32.916222 6.904492
2010-04-29 13:21:46 51°31.661 2°53.696 9.2043 3.557803 32.904394 7.043788
2010-04-29 13:22:45 51°31.65 2°53.752 9.2189 3.558857 32.917496 7.008964
2010-04-29 13:23:45 51°31.644 2°53.819 9.2229 3.55601 32.882203 6.103539
2010-04-29 13:24:45 51°31.645 2°53.886 9.2123 3.556854 32.890872 7.461677
2010-04-29 13:25:46 51°31.651 2°53.953 9.219 3.559384 32.916127 6.869668
2010-04-29 13:26:45 51°31.658 2°54.01 9.2216 3.558962 32.906515 7.635797
2010-04-29 13:27:45 51°31.668 2°54.064 9.2232 3.5597 32.911838 7.357205
2010-04-29 13:28:44 51°31.677 2°54.112 9.2519 3.560016 32.912827 7.775093
2010-04-29 13:29:45 51°31.688 2°54.16 9.2374 3.560438 32.899078 7.392029
2010-04-29 13:30:46 51°31.701 2°54.205 9.2283 3.560333 32.912308 8.123334
2010-04-29 13:31:45 51°31.716 2°54.25 9.2275 3.559489 32.905902 8.158158
2010-04-29 13:32:46 51°31.671 2°54.285 9.2353 3.558646 32.898742 8.471574
2010-04-29 13:33:45 51°31.524 2°54.319 9.2363 3.558435 32.892809 6.660724
2010-04-29 13:34:45 51°31.351 2°54.427 9.2532 3.557908 32.878358 6.765196
2010-04-29 13:35:45 51°31.167 2°54.543 10.087 3.557064 32.856908 7.322381
2010-04-29 13:36:46 51°31.052 2°54.614 10.1613 3.555474 32.196824 2.481837
2010-04-29 13:37:45 51°31.034 2°54.614 10.4439 3.557475 32.060627 1.262995
2010-04-29 13:38:46 51°31.037 2°54.629 10.3443 3.574132 32.065545 2.168421
2010-04-29 13:39:44 51°31.038 2°54.671 10.2583 3.571916 31.912153 1.158523
2010-04-29 13:40:45 51°31.041 2°54.735 11.2139 3.581828 31.999284 0.949579
2010-04-29 13:41:45 51°31.05 2°54.802 10.5357 3.621467 31.85987 -0.025495
2010-04-29 13:42:45 51°31.065 2°54.867 9.9023 3.591002 32.172565 2.412189
2010-04-29 13:43:46 51°31.082 2°54.928 9.8005 3.555159 32.26658 5.023993
2010-04-29 13:44:45 51°31.101 2°54.984 9.8321 3.550943 32.317599 5.441882
2010-04-29 13:45:46 51°31.12 2°55.041 9.8929 3.546936 32.235009 4.849873
2010-04-29 13:46:45 51°31.13 2°55.105 10.0364 3.550098 32.215548 4.014096
2010-04-29 13:47:45 51°31.115 2°55.184 9.77 3.557478 32.228521 3.770327
2010-04-29 13:48:45 51°31.088 2°55.26 9.7386 3.549572 32.312466 4.327512
2010-04-29 13:49:45 51°31.058 2°55.326 9.6541 3.545461 32.315993 4.919521
2010-04-29 13:50:45 51°31.029 2°55.381 9.7102 3.547043 32.391913 5.546354
2010-04-29 13:51:45 51°31.015 2°55.392 10.43 3.544195 32.261717 2.377365
2010-04-29 13:52:44 51°31.004 2°55.388 9.9406 3.578456 32.187014 2.551485
2010-04-29 13:53:44 51°30.988 2°55.389 9.8611 3.564015 32.343577 4.188216
2010-04-29 13:54:44 51°30.969 2°55.391 9.8117 3.55168 32.265518 3.143494
2010-04-29 13:55:44 51°30.947 2°55.395 10.5642 3.549677 32.259791 3.944447
2010-04-29 13:56:44 51°30.913 2°55.461 10.3633 3.58204 32.137283 1.855004
2010-04-29 13:57:44 51°30.797 2°55.554 9.792 3.582991 32.253096 2.551485
2010-04-29 13:58:44 51°30.623 2°55.565 9.6924 3.550521 32.308971 3.979271
2010-04-29 13:59:44 51°30.421 2°55.548 9.9611 3.538396 32.235744 2.864902
2010-04-29 14:00:44 51°30.218 2°55.527 9.9796 3.546511 32.027848 1.297819
2010-04-29 14:01:44 51°30.02 2°55.471 10.0022 3.55832 32.182982 2.864902
2010-04-29 14:02:44 51°29.823 2°55.415 9.8972 3.558743 32.261481 4.22304
2010-04-29 14:03:44 51°29.627 2°55.357 9.7437 3.561907 32.364412 4.745401
2010-04-29 14:04:45 51°29.428 2°55.3 10.0809 3.55305 32.227963 3.491735
2010-04-29 14:05:44 51°29.236 2°55.244 10.0356 3.56064 32.182564 4.431984
2010-04-29 14:06:44 51°29.04 2°55.185 9.9966 3.554525 32.151306 4.536456
2010-04-29 14:07:44 51°28.843 2°55.125 10.0008 3.55326 32.160874 4.780225
2010-04-29 14:08:44 51°28.645 2°55.066 9.9578 3.550097 32.141289 5.093641
2010-04-29 14:09:44 51°28.446 2°55.01 10.1088 3.553155 32.18501 5.476706
2010-04-29 14:10:44 51°28.248 2°54.956 10.2509 3.555684 32.091965 4.745401
2010-04-29 14:11:45 51°28.047 2°54.903 10.3493 3.557791 31.996867 3.770327
2010-04-29 14:12:45 51°27.848 2°54.849 10.435 3.560214 31.892964 3.004198
2010-04-29 14:13:45 51°27.65 2°54.8 10.6376 3.562006 31.834825 2.238069
2010-04-29 14:14:45 51°27.452 2°54.753 10.6132 3.569491 31.827098 2.655957
2010-04-29 14:15:44 51°27.259 2°54.705 10.7197 3.571599 31.849389 2.655957
2010-04-29 14:16:45 51°27.059 2°54.656 10.4466 3.573812 31.79377 2.551485
2010-04-29 14:17:45 51°26.862 2°54.607 10.3133 3.561584 31.879832 3.317614
2010-04-29 14:18:45 51°26.666 2°54.561 10.213 3.556103 31.914123 3.526559
2010-04-29 14:19:45 51°26.467 2°54.512 10.1256 3.551255 31.985535 4.640929
2010-04-29 14:20:45 51°26.266 2°54.458 10.0306 3.547565 32.013424 5.581178
2010-04-29 14:21:45 51°26.063 2°54.4 9.9009 3.540397 32.044457 6.416955
2010-04-29 14:22:45 51°25.858 2°54.337 9.8342 3.532069 32.036 7.078612
2010-04-29 14:23:45 51°25.652 2°54.268 9.826 3.522897 32.012558 7.705445
2010-04-29 14:24:45 51°25.445 2°54.198 9.8686 3.518469 31.964276 7.705445
2010-04-29 14:25:45 51°25.238 2°54.126 9.9027 3.515622 31.901128 7.705445
2010-04-29 14:26:45 51°25.029 2°54.055 9.9257 3.514356 31.870487 8.018862
2010-04-29 14:27:45 51°24.823 2°53.987 10.0284 3.51541 31.854655 8.367102
2010-04-29 14:28:45 51°24.618 2°53.921 10.1226 3.518256 31.769355 8.192982
2010-04-29 14:29:44 51°24.418 2°53.858 10.2438 3.520469 31.723557 8.018862
2010-04-29 14:30:44 51°24.211 2°53.86 10.3882 3.524052 31.65157 7.496501
2010-04-29 14:31:44 51°24.015 2°54.018 10.5652 3.528162 31.574193 6.660724
2010-04-29 14:32:44 51°23.82 2°54.186 10.4394 3.53048 31.486636 6.695548
2010-04-29 14:33:44 51°23.624 2°54.349 10.3946 3.522574 31.493612 7.357205
2010-04-29 14:34:44 51°23.425 2°54.504 10.4152 3.51783 31.470835 7.879566
2010-04-29 14:35:44 51°23.221 2°54.618 10.4278 3.517619 31.454839 8.43675
2010-04-29 14:36:44 51°23.013 2°54.629 10.5142 3.51667 31.438474 8.854639
2010-04-29 14:37:44 51°22.813 2°54.569 10.734 3.514349 31.315901 7.043788
2010-04-29 14:38:44 51°22.613 2°54.502 10.5872 3.517194 31.195179 5.720474
2010-04-29 14:39:44 51°22.409 2°54.442 10.5262 3.509183 31.230444 7.426853
2010-04-29 14:40:44 51°22.204 2°54.377 10.5849 3.503701 31.214008 7.91439
2010-04-29 14:41:44 51°21.996 2°54.312 10.601 3.502224 31.161019 8.297454
2010-04-29 14:42:44 51°21.788 2°54.24 10.5744 3.50233 31.144953 8.576047
2010-04-29 14:43:44 51°21.578 2°54.162 10.5632 3.501592 31.162988 8.959111
2010-04-29 14:44:44 51°21.37 2°54.073 10.5829 3.499905 31.162762 9.411824
2010-04-29 14:45:44 51°21.163 2°53.986 10.5975 3.499378 31.148647 9.585944
2010-04-29 14:46:44 51°20.957 2°53.897 10.6151 3.497269 31.107981 10.108305
2010-04-29 14:47:45 51°20.747 2°53.807 10.656 3.496215 31.071635 12.406692
2010-04-29 14:48:45 51°20.541 2°53.714 10.6669 3.494528 31.035244 15.923922
2010-04-29 14:49:45 51°20.337 2°53.618 10.9127 3.498849 31.027507 14.600608
2010-04-29 14:50:45 51°20.133 2°53.522 11.0077 3.515821 31.021535 17.665125
2010-04-29 14:51:45 51°19.928 2°53.424 11.1179 3.527839 31.05082 10.108305
2010-04-29 14:52:44 51°19.726 2°53.328 11.1201 3.541544 31.103872 7.287557
2010-04-29 14:53:45 51°19.518 2°53.224 11.0836 3.544074 31.119804 8.192982
2010-04-29 14:54:45 51°19.311 2°53.123 10.9836 3.54049 31.11512 9.585944
2010-04-29 14:55:45 51°19.103 2°53.023 10.8351 3.547239 31.272359 8.959111
2010-04-29 14:56:45 51°18.897 2°52.922 10.7596 3.548506 31.410269 11.396795
2010-04-29 14:57:45 51°18.693 2°52.818 10.6405 3.545028 31.446725 12.580813
2010-04-29 14:58:45 51°18.487 2°52.715 10.5562 3.544186 31.550209 15.854274
2010-04-29 14:59:45 51°18.279 2°52.641 10.5311 3.542288 31.584848 16.864171
2010-04-29 15:00:45 51°18.064 2°52.625 10.5721 3.542289 31.593883 16.16769
2010-04-29 15:01:44 51°17.851 2°52.61 10.6456 3.547454 31.603344 14.948848
2010-04-29 15:02:44 51°17.634 2°52.626 10.6504 3.556521 31.646501 14.113071
2010-04-29 15:03:44 51°17.416 2°52.659 10.5984 3.56232 31.696179 15.575681
2010-04-29 15:04:44 51°17.199 2°52.705 10.5659 3.557049 31.70806 18.257134
2010-04-29 15:05:45 51°16.981 2°52.789 10.5895 3.551883 31.676402 19.68492
2010-04-29 15:06:44 51°16.776 2°52.893 10.8646 3.553464 31.650303 16.481107
2010-04-29 15:07:44 51°16.568 2°53.009 11.0858 3.552196 31.402718 10.978906
2010-04-29 15:08:45 51°16.36 2°53.155 11.2004 3.54302 31.14049 9.516296
2010-04-29 15:09:45 51°16.16 2°53.314 11.3508 3.546077 31.078214 8.471574
2010-04-29 15:10:44 51°15.965 2°53.479 11.7371 0.098463 0.667385 -0.617504
2010-04-29 15:11:44 51°15.767 2°53.648 11.7816 0.069846 0.46665 -0.617504
2010-04-29 15:12:45 51°15.576 2°53.86 11.8747 0.068701 0.45862 -0.617504
2010-04-29 15:13:45 51°15.388 2°54.07 11.9764 0.052888 0.349186 -0.617504
2010-04-29 15:14:45 51°15.199 2°54.273 12.0461 0.06017 0.398883 -0.617504
2010-04-29 15:15:45 51°15.02 2°54.491 12.1999 0.060586 0.401503 -0.652328
2010-04-29 15:16:44 51°14.842 2°54.698 12.2986 0.055696 0.367605 -0.617504
2010-04-29 15:17:45 51°14.656 2°54.916 12.419 0.056217 0.37084 -0.652328
2010-04-29 15:18:44 51°14.465 2°55.096 12.4945 0.050599 0.332277 -0.652328
2010-04-29 15:19:45 51°14.272 2°55.279 12.5631 0.052888 0.347577 -0.687152
2010-04-29 15:20:46 51°14.119 2°55.424 12.6552 0.056217 0.369954 -0.721976
2010-04-29 15:21:47 51°13.995 2°55.515 12.6901 0.055072 0.361876 -0.721976
2010-04-29 15:22:48 51°13.883 2°55.589 12.7737 0.05476 0.359458 -0.687152
2010-04-29 15:23:48 51°13.786 2°55.665 12.8648 0.05372 0.352103 -0.721976
2010-04-29 15:24:48 51°13.718 2°55.781 12.9814 0.0532 0.348305 -0.687152
2010-04-29 15:25:48 51°13.68 2°55.883 13.0725 0.054656 0.357943 -0.721976
2010-04-29 15:26:47 51°13.665 2°55.95 13.4787 1.596673 11.194232 -0.687152